Time;durP1;ratioP1;P1;durP2;ratioP2;P2;SDS_P1;SDS_P2;PMS_P1;PMS_P2;Temp;Humidity;BMP_temperature;BMP_pressure;BME280_temperature;BME280_humidity;BME280_pressure;Samples;Min_cycle;Max_cycle;Signal;HPM_P1;HPM_P2
2022/04/01 00:01:12;;;;;;;6.03;1.60;;;;;;;15.23;46.64;95944.72;10334486;28;20061;-61
2022/04/01 00:06:11;;;;;;;13.18;2.08;;;;;;;14.89;46.64;95866.28;10334419;28;20022;-61
2022/04/01 00:11:10;;;;;;;8.95;2.03;;;;;;;15.12;46.92;95918.25;10334077;28;20061;-61
2022/04/01 00:16:09;;;;;;;9.05;2.67;;;;;;;15.06;46.87;95900.28;10334104;28;20027;-61
2022/04/01 00:21:08;;;;;;;19.55;3.67;;;;;;;14.98;47.41;95924.13;10333639;28;20479;-61
2022/04/01 00:26:07;;;;;;;14.90;3.75;;;;;;;14.85;47.01;95907.38;10334291;28;20065;-61
2022/04/01 00:31:06;;;;;;;13.95;3.85;;;;;;;14.90;47.79;95904.56;10333050;28;20091;-61
2022/04/01 00:36:05;;;;;;;17.02;4.30;;;;;;;14.86;47.47;95884.72;10333571;28;20065;-61
2022/04/01 00:41:04;;;;;;;21.48;4.82;;;;;;;14.75;47.77;95870.41;10333578;28;20409;-61
2022/04/01 00:46:03;;;;;;;20.17;5.00;;;;;;;14.72;48.69;95877.53;10332415;28;20108;-61
2022/04/01 00:51:02;;;;;;;23.40;5.38;;;;;;;14.54;48.83;95846.13;10332587;28;20380;-61
2022/04/01 00:56:02;;;;;;;20.73;6.20;;;;;;;14.73;48.75;95858.34;10333470;28;20066;-61
2022/04/01 01:01:01;;;;;;;31.08;7.00;;;;;;;14.44;48.54;95818.78;10331904;28;20060;-61
2022/04/01 01:06:00;;;;;;;27.58;6.18;;;;;;;14.59;48.91;95838.06;10331983;28;20036;-61
2022/04/01 01:11:01;;;;;;;27.58;5.93;;;;;;;14.73;48.96;95848.75;10332149;28;20523;-61
2022/04/01 01:16:00;;;;;;;25.98;6.93;;;;;;;14.51;49.02;95809.75;10331692;28;20052;-61
2022/04/01 01:20:59;;;;;;;26.60;6.35;;;;;;;14.73;48.93;95846.16;10330875;28;20467;-61
2022/04/01 01:25:58;;;;;;;;;;;;;;;14.88;49.05;95864.59;10332019;28;20447;-61
2022/04/01 01:30:57;;;;;;;33.20;6.88;;;;;;;14.87;49.16;95878.56;10330912;28;20386;-61
2022/04/01 01:35:56;;;;;;;22.98;6.30;;;;;;;14.80;49.23;95894.56;10331036;28;20065;-61
2022/04/01 01:40:55;;;;;;;23.83;6.78;;;;;;;14.69;49.32;95878.50;10331204;28;20037;-61
2022/04/01 01:45:54;;;;;;;32.20;7.55;;;;;;;14.83;49.36;95910.06;10330491;28;20414;-61
2022/04/01 01:56:11;;;;;;;31.38;7.03;;;;;;;14.70;49.74;95911.53;10330672;28;20061;-61
2022/04/01 02:01:11;;;;;;;32.38;6.53;;;;;;;14.63;50.20;95904.88;10330441;28;20716;-61
2022/04/01 02:06:10;;;;;;;27.10;6.10;;;;;;;13.87;49.94;95766.66;10331135;28;20076;-61
2022/04/01 02:11:08;;;;;;;27.70;6.65;;;;;;;14.59;50.04;95896.38;10330517;28;20105;-61
2022/04/01 02:16:07;;;;;;;31.05;6.90;;;;;;;14.54;49.94;95898.31;10329856;28;20032;-61
2022/04/01 02:21:10;;;;;;;32.78;5.80;;;;;;;14.52;50.15;95871.47;10330012;28;20068;-61
2022/04/01 02:26:10;;;;;;;28.15;6.43;;;;;;;14.44;50.69;95875.34;10330322;28;20069;-61
2022/04/01 02:31:11;;;;;;;31.17;6.60;;;;;;;14.39;50.15;95865.13;10329670;28;20467;-61
2022/04/01 02:36:10;;;;;;;29.38;6.13;;;;;;;14.44;50.45;95864.91;10333480;28;20072;-61
2022/04/01 02:41:13;;;;;;;27.23;6.65;;;;;;;14.38;50.34;95861.69;10337888;28;20570;-61
2022/04/01 02:46:12;;;;;;;27.90;7.32;;;;;;;14.15;50.31;95822.78;10337057;28;20077;-61
2022/04/01 02:51:11;;;;;;;;;;;;;;;14.46;50.25;95878.75;10338124;28;20483;-61
2022/04/01 02:56:10;;;;;;;36.95;7.47;;;;;;;14.09;50.61;95834.31;10337619;28;20424;-61
2022/04/01 03:01:09;;;;;;;27.15;6.47;;;;;;;14.34;50.25;95849.69;10336715;28;20036;-61
2022/04/01 03:06:08;;;;;;;32.17;7.10;;;;;;;14.20;50.35;95841.66;10339889;28;20538;-61
2022/04/01 03:11:07;;;;;;;33.13;8.23;;;;;;;14.42;50.24;95859.75;10340845;28;20045;-61
2022/04/01 03:16:06;;;;;;;39.72;7.57;;;;;;;13.78;50.52;95778.34;10340050;28;20060;-61
2022/04/01 03:21:10;;;;;;;;;;;;;;;14.31;50.61;95862.88;10340288;28;20499;-61
2022/04/01 03:26:08;;;;;;;29.83;6.90;;;;;;;13.50;51.04;95729.19;10339139;28;19963;-61
2022/04/01 03:31:09;;;;;;;45.83;8.13;;;;;;;14.15;50.96;95823.59;10339850;28;20021;-61
2022/04/01 03:36:09;;;;;;;38.03;7.78;;;;;;;13.89;50.69;95790.91;10339104;28;20061;-61
2022/04/01 03:41:08;;;;;;;32.63;7.68;;;;;;;13.99;50.75;95813.03;10338493;28;20068;-61
2022/04/01 03:46:10;;;;;;;38.28;7.65;;;;;;;14.16;50.86;95845.31;10338126;28;20069;-61
2022/04/01 03:51:15;;;;;;;47.00;9.07;;;;;;;14.25;50.79;95855.31;10338225;28;20061;-62
2022/04/01 03:56:17;;;;;;;37.63;8.40;;;;;;;14.26;50.60;95845.72;10337898;28;20470;-61
2022/04/01 04:01:16;;;;;;;48.78;8.75;;;;;;;14.29;50.63;95836.00;10338294;28;20542;-61
2022/04/01 04:06:16;;;;;;;47.05;10.05;;;;;;;14.28;50.77;95826.47;10334578;28;20479;-61
2022/04/01 04:11:17;;;;;;;44.03;9.98;;;;;;;14.15;50.80;95812.34;10333911;28;20488;-61
2022/04/01 04:16:19;;;;;;;50.30;8.52;;;;;;;14.30;50.93;95816.81;10333914;28;20065;-61
2022/04/01 04:21:18;;;;;;;46.15;9.48;;;;;;;14.28;50.95;95804.78;10331321;28;20065;-61
2022/04/01 04:26:37;;;;;;;;;;;;;;;14.28;50.89;95818.66;10331580;28;20499;-61
2022/04/01 04:31:38;;;;;;;53.47;9.52;;;;;;;14.25;50.91;95810.97;10330682;28;20732;-61
2022/04/01 04:36:39;;;;;;;44.25;10.38;;;;;;;14.24;50.92;95805.81;10330345;28;20065;-61
2022/04/01 04:41:40;;;;;;;38.92;9.77;;;;;;;14.31;50.91;95812.44;10327572;28;20065;-61
2022/04/01 04:46:42;;;;;;;50.67;9.70;;;;;;;14.32;50.87;95799.34;10324242;28;20539;-61
2022/04/01 04:51:41;;;;;;;42.65;10.02;;;;;;;14.45;50.75;95798.75;10327652;28;20095;-61
2022/04/01 04:56:41;;;;;;;52.35;10.05;;;;;;;14.27;50.18;95738.72;10326116;28;20061;-61
2022/04/01 05:01:55;;;;;;;37.85;9.50;;;;;;;14.37;50.24;95718.22;10326333;28;20063;-61
2022/04/01 05:07:15;;;;;;;47.92;9.18;;;;;;;14.77;49.68;95764.13;10330503;28;20065;-61
2022/04/01 05:12:28;;;;;;;50.67;10.82;;;;;;;14.73;49.17;95738.25;10330134;28;20068;-61
2022/04/01 05:17:37;;;;;;;48.88;11.15;;;;;;;15.05;49.09;95757.53;10330701;28;20072;-61
2022/04/01 05:22:47;;;;;;;59.50;11.75;;;;;;;14.87;48.72;95714.88;10330565;28;20529;-63
2022/04/01 05:27:49;;;;;;;54.75;12.02;;;;;;;15.31;47.83;95774.47;10326423;28;20076;-63
2022/04/01 05:33:00;;;;;;;55.83;11.57;;;;;;;15.44;47.57;95769.47;10330531;28;20061;-63
2022/04/01 05:38:00;;;;;;;54.65;11.20;;;;;;;15.64;47.53;95756.16;10329983;28;20060;-61
2022/04/01 05:43:00;;;;;;;51.17;11.57;;;;;;;15.75;47.15;95750.38;10326007;28;20621;-61
2022/04/01 05:48:01;;;;;;;58.83;11.77;;;;;;;15.87;46.43;95746.28;10329927;28;20084;-61
2022/04/01 05:53:02;;;;;;;49.55;11.63;;;;;;;15.88;46.17;95735.75;10329994;28;20060;-61
2022/04/01 05:58:05;;;;;;;58.75;10.90;;;;;;;15.38;45.43;95639.09;10327962;28;20813;-61
2022/04/01 06:03:42;;;;;;;63.53;12.80;;;;;;;16.33;45.55;95764.69;10329154;28;20053;-61
2022/04/01 06:08:56;;;;;;;58.42;12.70;;;;;;;16.44;45.05;95779.78;10334394;28;20061;-62
2022/04/01 06:14:03;;;;;;;55.25;11.80;;;;;;;16.56;44.47;95780.88;10301315;28;20057;-61
2022/04/01 06:19:24;;;;;;;62.17;13.50;;;;;;;16.67;44.65;95768.84;10326067;28;20036;-61
2022/04/01 06:25:03;;;;;;;57.60;12.15;;;;;;;16.86;43.88;95773.94;10341298;28;20080;-63
2022/04/01 06:30:02;;;;;;;47.70;11.95;;;;;;;17.04;43.87;95765.94;10340399;28;20081;-63
2022/04/01 06:35:18;;;;;;;58.03;11.85;;;;;;;16.71;42.65;95698.81;10340962;28;20057;-61
2022/04/01 06:40:23;;;;;;;60.47;11.48;;;;;;;17.32;42.16;95762.53;10340765;28;20064;-61
2022/04/01 06:45:22;;;;;;;57.45;12.40;;;;;;;17.43;42.06;95761.88;10331001;28;20061;-62
2022/04/01 06:50:21;;;;;;;59.65;12.27;;;;;;;17.59;40.88;95770.53;10299821;28;20045;-62
2022/04/01 06:55:20;;;;;;;52.38;11.05;;;;;;;17.57;41.05;95735.66;10335924;28;20061;-61
2022/04/01 07:00:19;;;;;;;61.13;13.00;;;;;;;17.96;40.26;95765.63;10339959;28;20083;-61
2022/04/01 07:05:19;;;;;;;59.35;11.93;;;;;;;18.00;39.97;95740.91;10337758;28;20503;-62
2022/04/01 07:10:17;;;;;;;60.63;12.32;;;;;;;18.33;38.49;95768.56;10336208;28;20068;-62
2022/04/01 07:15:16;;;;;;;52.53;12.30;;;;;;;17.86;38.34;95665.66;10336119;28;20043;-62
2022/04/01 07:20:15;;;;;;;;;;;;;;;18.79;38.21;95776.16;10335663;28;20036;-63
2022/04/01 07:25:14;;;;;;;71.53;13.40;;;;;;;18.70;37.54;95746.06;10335811;28;20390;-62
2022/04/01 07:30:13;;;;;;;65.30;14.18;;;;;;;18.84;37.39;95742.53;10335806;28;20925;-62
2022/04/01 07:35:14;;;;;;;59.53;14.40;;;;;;;19.23;36.22;95764.47;10335889;28;20069;-62
2022/04/01 07:40:13;;;;;;;62.03;12.63;;;;;;;19.19;36.48;95724.38;10335429;28;20065;-62
2022/04/01 07:45:12;;;;;;;62.35;14.40;;;;;;;19.65;35.95;95773.06;10335044;28;20111;-62
2022/04/01 07:50:14;;;;;;;59.85;13.05;;;;;;;19.78;35.44;95765.97;10335129;28;20111;-61
2022/04/01 07:55:16;;;;;;;61.42;13.73;;;;;;;19.86;34.69;95747.88;10334304;28;20064;-61
2022/04/01 08:00:16;;;;;;;65.93;18.10;;;;;;;20.13;35.05;95764.44;10334645;28;20092;-62
2022/04/01 08:05:16;;;;;;;63.75;21.13;;;;;;;20.07;33.67;95739.38;10334365;28;20071;-62
2022/04/01 08:10:15;;;;;;;66.00;13.48;;;;;;;20.44;34.39;95760.47;10334581;28;20076;-61
2022/04/01 08:15:14;;;;;;;60.22;12.70;;;;;;;20.63;33.69;95760.84;10334339;28;20064;-62
2022/04/01 08:20:13;;;;;;;64.45;13.20;;;;;;;20.78;33.15;95763.31;10333669;28;20029;-62
2022/04/01 08:25:12;;;;;;;60.10;12.23;;;;;;;21.12;32.92;95766.88;10334316;28;20061;-62
2022/04/01 08:30:11;;;;;;;61.42;14.25;;;;;;;21.28;32.82;95761.34;10334000;28;20068;-63
2022/04/01 08:35:10;;;;;;;59.72;12.93;;;;;;;21.41;32.12;95748.91;10333187;28;20061;-64
2022/04/01 08:40:10;;;;;;;61.08;13.10;;;;;;;21.72;31.60;95733.34;10333078;28;20039;-64
2022/04/01 08:45:09;;;;;;;69.85;14.48;;;;;;;22.17;31.09;95752.66;10332953;28;20499;-64
2022/04/01 08:50:09;;;;;;;68.03;14.68;;;;;;;22.36;31.32;95752.03;10332830;28;20077;-61
2022/04/01 08:55:10;;;;;;;62.13;16.48;;;;;;;22.51;30.43;95725.34;10332311;28;20488;-62
2022/04/01 09:00:14;;;;;;;54.80;14.38;;;;;;;22.84;30.79;95742.09;10331869;28;20060;-61
2022/04/01 09:05:13;;;;;;;64.45;13.98;;;;;;;22.83;30.95;95698.06;10332194;28;20061;-61
2022/04/01 09:10:12;;;;;;;60.00;12.13;;;;;;;23.08;29.75;95737.38;10332076;28;20155;-61
2022/04/01 09:15:12;;;;;;;63.97;12.68;;;;;;;22.74;30.48;95708.47;10332069;28;20349;-61
2022/04/01 09:20:12;;;;;;;63.05;12.82;;;;;;;22.74;30.13;95732.25;10331715;28;20067;-61
2022/04/01 09:25:17;;;;;;;58.97;12.80;;;;;;;22.82;30.99;95730.78;10331219;28;20061;-62
2022/04/01 09:30:26;;;;;;;59.85;13.48;;;;;;;23.08;30.06;95716.22;10331700;28;20073;-64
2022/04/01 09:35:30;;;;;;;67.60;12.23;;;;;;;23.21;29.58;95743.34;10331733;28;20057;-63
2022/04/01 09:40:30;;;;;;;52.72;11.30;;;;;;;23.33;29.47;95735.34;10331099;28;20068;-63
2022/04/01 09:45:32;;;;;;;62.53;12.80;;;;;;;23.26;30.38;95739.47;10330513;28;20412;-63
2022/04/01 09:50:34;;;;;;;62.83;12.07;;;;;;;23.23;34.18;95720.25;10330593;28;20060;-63
2022/04/01 09:55:44;;;;;;;59.38;12.18;;;;;;;22.95;31.81;95705.84;10330890;28;20064;-63
2022/04/01 10:00:44;;;;;;;63.15;13.75;;;;;;;22.73;32.44;95717.31;10329340;28;20097;-63
2022/04/01 10:05:45;;;;;;;51.33;12.25;;;;;;;22.19;35.84;95718.19;10329021;28;20855;-63
2022/04/01 10:10:44;;;;;;;62.47;12.27;;;;;;;21.89;38.47;95717.00;10327962;28;20088;-63
2022/04/01 10:15:44;;;;;;;68.90;13.32;;;;;;;21.39;38.32;95713.88;10330806;28;20061;-63
2022/04/01 10:20:43;;;;;;;51.83;12.43;;;;;;;20.97;38.70;95662.59;10329751;28;20068;-63
2022/04/01 10:25:57;;;;;;;66.07;15.80;;;;;;;21.01;39.87;95714.97;10330845;28;20085;-63
2022/04/01 10:31:01;;;;;;;60.55;13.35;;;;;;;20.83;39.63;95700.53;10330777;28;20060;-63
2022/04/01 10:36:21;;;;;;;61.08;14.00;;;;;;;20.89;39.67;95706.19;10329997;28;20064;-63
2022/04/01 10:41:20;;;;;;;55.45;12.55;;;;;;;20.81;41.38;95712.97;10326311;28;20095;-63
2022/04/01 10:46:19;;;;;;;50.88;11.80;;;;;;;20.64;40.49;95709.81;10324320;28;20037;-63
2022/04/01 10:51:39;;;;;;;54.72;11.65;;;;;;;20.54;40.61;95698.28;10330453;28;20069;-63
2022/04/01 10:56:40;;;;;;;51.97;11.73;;;;;;;20.44;39.80;95684.06;10334053;28;20064;-63
2022/04/01 11:02:00;;;;;;;52.83;10.60;;;;;;;20.41;37.74;95685.16;10334683;28;20071;-63
2022/04/01 11:07:29;;;;;;;56.15;10.95;;;;;;;19.92;38.12;95598.34;10336326;28;20089;-63
2022/04/01 11:12:41;;;;;;;49.45;10.88;;;;;;;20.59;36.56;95687.41;10300175;28;20507;-63
2022/04/01 11:17:40;;;;;;;43.38;8.75;;;;;;;20.67;38.91;95672.66;10299392;28;20076;-63
2022/04/01 11:22:43;;;;;;;55.97;9.85;;;;;;;20.78;37.73;95671.03;10299464;28;20025;-63
2022/04/01 11:27:48;;;;;;;45.67;9.43;;;;;;;20.81;37.24;95640.00;10299613;28;20062;-63
2022/04/01 11:32:57;;;;;;;44.90;9.85;;;;;;;21.06;38.71;95628.44;10308973;28;20068;-63
2022/04/01 11:37:58;;;;;;;54.80;10.83;;;;;;;21.16;37.71;95628.56;10339434;28;20467;-63
2022/04/01 11:43:08;;;;;;;48.88;9.68;;;;;;;21.35;37.38;95614.81;10309308;28;20384;-63
2022/04/01 11:48:19;;;;;;;44.58;9.85;;;;;;;21.71;35.21;95626.03;10298887;28;20081;-63
2022/04/01 11:53:24;;;;;;;50.10;10.70;;;;;;;22.06;33.80;95612.69;10298427;28;20068;-63
2022/04/01 11:58:24;;;;;;;50.17;9.18;;;;;;;22.37;33.42;95611.00;10299516;28;20041;-63
2022/04/01 12:03:24;;;;;;;37.50;9.00;;;;;;;22.26;32.45;95584.63;10338108;28;20069;-63
2022/04/01 12:13:55;;;;;;;41.35;9.43;;;;;;;22.74;32.20;95597.41;10333639;28;20088;-63
2022/04/01 12:18:57;;;;;;;40.00;9.90;;;;;;;22.76;31.86;95600.78;10331590;28;20068;-63
2022/04/01 12:23:56;;;;;;;47.72;9.50;;;;;;;22.96;31.69;95616.75;10331141;28;20081;-63
2022/04/01 12:28:55;;;;;;;36.30;9.25;;;;;;;23.20;31.08;95609.34;10330590;28;20455;-63
2022/04/01 12:33:56;;;;;;;70.45;28.38;;;;;;;23.35;29.37;95612.50;10333450;28;20525;-63
2022/04/01 12:39:08;;;;;;;49.20;9.75;;;;;;;22.98;29.30;95647.38;10333167;28;20509;-63
2022/04/01 12:44:11;;;;;;;46.97;10.85;;;;;;;22.35;32.00;95635.91;10332803;28;20079;-63
2022/04/01 12:49:15;;;;;;;51.22;10.45;;;;;;;21.73;33.22;95643.47;10334698;28;20604;-63
2022/04/01 12:54:24;;;;;;;47.83;11.95;;;;;;;21.30;35.01;95640.72;10332037;28;20111;-63
2022/04/01 12:59:24;;;;;;;61.28;18.00;;;;;;;20.84;36.50;95633.66;10333211;28;20064;-63
2022/04/01 13:04:22;;;;;;;46.67;14.77;;;;;;;19.95;37.60;95522.59;10331844;28;20585;-63
2022/04/01 13:09:21;;;;;;;48.88;13.98;;;;;;;20.50;37.64;95609.88;10332662;28;20538;-63
2022/04/01 13:14:29;;;;;;;100.53;39.88;;;;;;;20.06;38.66;95614.78;10332643;28;20025;-63
2022/04/01 13:19:33;;;;;;;58.42;20.40;;;;;;;19.80;39.50;95618.50;10331861;28;20072;-63
2022/04/01 13:24:38;;;;;;;61.53;24.13;;;;;;;19.90;40.04;95618.66;10332290;28;20068;-63
2022/04/01 13:29:38;;;;;;;91.82;37.88;;;;;;;19.74;39.96;95632.06;10331883;28;20483;-63
2022/04/01 13:34:38;;;;;;;44.05;13.57;;;;;;;19.22;40.52;95568.19;10332355;28;20060;-63
2022/04/01 13:39:37;;;;;;;45.38;10.27;;;;;;;19.58;40.14;95621.81;10332005;28;20068;-63
2022/04/01 13:44:37;;;;;;;48.47;12.80;;;;;;;19.39;40.54;95580.16;10331785;28;20075;-63
2022/04/01 13:49:36;;;;;;;52.20;19.77;;;;;;;19.77;40.33;95637.16;10331365;28;20085;-63
2022/04/01 13:54:34;;;;;;;50.78;23.23;;;;;;;19.55;39.90;95585.16;10331933;28;20021;-63
2022/04/01 13:59:34;;;;;;;39.33;10.13;;;;;;;19.60;40.55;95589.19;10331406;28;20128;-63
2022/04/01 14:04:35;;;;;;;41.15;10.00;;;;;;;19.26;41.38;95611.75;10330749;28;20033;-63
2022/04/01 14:09:44;;;;;;;52.40;10.48;;;;;;;18.89;41.63;95616.91;10330972;28;20093;-63
2022/04/01 14:14:43;;;;;;;39.50;9.90;;;;;;;18.75;42.58;95635.41;10330901;28;20069;-63
2022/04/01 14:19:42;;;;;;;43.03;10.27;;;;;;;17.96;44.91;95602.94;10330982;28;20108;-63
2022/04/01 14:24:41;;;;;;;51.50;16.17;;;;;;;17.98;45.56;95711.28;10331015;28;20057;-63
2022/04/01 14:34:59;;;;;;;26.77;8.15;;;;;;;16.26;56.70;95674.38;10338757;28;20065;-63
2022/04/01 14:39:57;;;;;;;31.55;9.52;;;;;;;15.80;56.98;95714.38;10338583;28;20064;-63
2022/04/01 14:44:56;;;;;;;;;;;;;;;15.21;58.28;95727.06;10339176;28;20034;-63
2022/04/01 14:49:57;;;;;;;26.45;8.15;;;;;;;14.77;60.51;95758.91;10337745;28;19968;-63
2022/04/01 14:54:56;;;;;;;32.67;7.45;;;;;;;14.53;62.07;95833.16;10338393;28;20068;-62
2022/04/01 14:59:56;;;;;;;26.98;7.90;;;;;;;13.62;69.45;95996.28;10337851;28;20031;-61
2022/04/01 15:04:55;;;;;;;13.65;4.22;;;;;;;12.25;69.85;96006.69;10335578;28;20064;-61
2022/04/01 15:09:55;;;;;;;11.77;3.15;;;;;;;11.43;74.07;96010.31;10337324;28;20035;-61
2022/04/01 15:14:54;;;;;;;9.48;3.10;;;;;;;11.00;75.91;95996.09;10337018;28;20076;-61
2022/04/01 15:19:53;;;;;;;32.15;17.50;;;;;;;10.77;76.88;95989.00;10334556;28;20160;-61
2022/04/01 15:24:53;;;;;;;15.93;10.05;;;;;;;10.94;77.28;95984.19;10335892;28;20518;-61
2022/04/01 15:29:52;;;;;;;17.02;11.63;;;;;;;10.73;78.10;95918.19;10336096;28;20069;-61
2022/04/01 15:34:54;;;;;;;10.07;4.32;;;;;;;11.10;77.86;95890.25;10335027;28;20196;-61
2022/04/01 15:39:55;;;;;;;7.65;4.50;;;;;;;11.17;79.14;95863.19;10334930;28;20463;-61
2022/04/01 15:44:56;;;;;;;11.65;5.78;;;;;;;11.22;78.84;95846.56;10335172;28;20065;-61
2022/04/01 15:49:55;;;;;;;12.82;6.78;;;;;;;11.37;79.50;95816.59;10334327;28;20115;-61
2022/04/01 15:54:54;;;;;;;14.32;8.50;;;;;;;11.46;79.29;95805.91;10334383;28;20416;-61
2022/04/01 15:59:53;;;;;;;13.52;8.13;;;;;;;11.57;78.96;95812.44;10328949;28;20033;-61
2022/04/01 16:04:57;;;;;;;22.85;11.75;;;;;;;11.64;79.40;95809.59;10335361;28;20566;-61
2022/04/01 16:10:10;;;;;;;20.80;13.40;;;;;;;11.44;80.32;95796.47;10338007;28;20408;-61
2022/04/01 16:15:11;;;;;;;13.15;8.25;;;;;;;11.35;80.29;95792.44;10337187;28;20065;-60
2022/04/01 16:20:10;;;;;;;10.43;6.55;;;;;;;11.13;80.12;95752.56;10336661;28;20076;-61
2022/04/01 16:25:09;;;;;;;13.82;6.55;;;;;;;11.28;79.85;95783.19;10337389;28;20475;-61
2022/04/01 16:30:09;;;;;;;8.70;4.55;;;;;;;11.13;79.96;95758.63;10330284;28;20478;-61
2022/04/01 16:35:10;;;;;;;10.15;5.57;;;;;;;11.24;79.53;95755.63;10336611;28;20064;-61
2022/04/01 16:40:09;;;;;;;17.40;11.35;;;;;;;11.28;80.63;95754.63;10336843;28;20077;-61
2022/04/01 16:45:09;;;;;;;18.00;9.52;;;;;;;11.12;80.74;95761.25;10335946;28;20466;-61
2022/04/01 16:50:08;;;;;;;15.23;8.77;;;;;;;10.62;81.21;95687.69;10335757;28;20503;-61
2022/04/01 16:55:07;;;;;;;19.40;11.20;;;;;;;10.81;82.75;95770.06;10334697;28;20064;-61
2022/04/01 17:00:11;;;;;;;116.50;85.70;;;;;;;10.67;83.29;95777.47;10329682;28;20073;-61
2022/04/01 17:05:10;;;;;;;26.70;17.33;;;;;;;10.38;83.95;95745.56;10333423;28;20601;-61
2022/04/01 17:15:28;;;;;;;31.02;21.48;;;;;;;10.58;82.31;95778.59;10331821;28;20585;-61
2022/04/01 17:20:27;;;;;;;18.10;11.90;;;;;;;10.19;81.85;95740.97;10331192;28;20056;-61
2022/04/01 17:25:26;;;;;;;38.42;26.35;;;;;;;10.42;82.33;95788.63;10331487;28;20072;-61
2022/04/01 17:30:25;;;;;;;25.27;17.38;;;;;;;9.85;82.35;95704.88;10330532;28;20072;-61
2022/04/01 17:35:31;;;;;;;53.85;37.50;;;;;;;10.40;83.23;95821.53;10331110;28;20026;-61
2022/04/01 17:40:31;;;;;;;33.13;21.15;;;;;;;10.23;84.55;95811.69;10330743;28;20072;-61
2022/04/01 17:45:30;;;;;;;30.33;19.63;;;;;;;9.95;85.10;95793.53;10330605;28;20092;-61
2022/04/01 17:50:34;;;;;;;33.47;20.75;;;;;;;10.12;84.76;95831.88;10329949;28;20065;-61
2022/04/01 17:55:37;;;;;;;23.90;15.85;;;;;;;9.42;84.36;95726.03;10330730;28;20065;-60
2022/04/01 18:00:37;;;;;;;28.10;18.13;;;;;;;9.52;84.64;95774.94;10330467;28;20115;-61
2022/04/01 18:05:36;;;;;;;;;;;;;;;9.91;84.67;95843.75;10334190;28;20068;-61
2022/04/01 18:10:35;;;;;;;53.00;39.35;;;;;;;9.56;85.54;95775.69;10338731;28;19978;-61
2022/04/01 18:15:34;;;;;;;53.80;39.58;;;;;;;9.84;86.30;95844.81;10330072;28;20034;-61
2022/04/01 18:20:33;;;;;;;81.40;54.63;;;;;;;9.86;86.05;95856.81;10297497;28;20062;-60
2022/04/01 18:25:39;;;;;;;61.45;43.33;;;;;;;9.84;87.90;95889.72;10297529;28;20034;-61
2022/04/01 18:30:41;;;;;;;33.72;23.10;;;;;;;9.95;87.91;95965.38;10297479;28;20065;-60
2022/04/01 18:35:42;;;;;;;9.75;3.80;;;;;;;9.54;84.23;95881.06;10296353;28;20058;-61
2022/04/01 18:40:43;;;;;;;8.05;4.22;;;;;;;10.07;84.81;95929.66;10297960;28;20066;-61
2022/04/01 18:45:43;;;;;;;11.98;5.03;;;;;;;10.38;81.53;95950.38;10297012;28;20084;-61
2022/04/01 18:50:45;;;;;;;8.65;2.50;;;;;;;10.74;77.65;95924.22;10296240;28;20088;-61
2022/04/01 18:55:45;;;;;;;3.08;1.42;;;;;;;11.05;75.45;95903.38;10297293;28;20500;-61
2022/04/01 19:00:44;;;;;;;7.38;1.98;;;;;;;11.29;73.98;95908.66;10296210;28;20061;-61
2022/04/01 19:06:07;;;;;;;6.32;1.95;;;;;;;11.38;75.46;95932.56;10297910;28;20069;-61
2022/04/01 19:11:17;;;;;;;3.65;1.90;;;;;;;11.41;74.45;95955.84;10300041;28;20061;-61
2022/04/01 19:16:17;;;;;;;6.57;1.95;;;;;;;11.46;73.95;95961.72;10298009;28;20507;-61
2022/04/01 19:21:19;;;;;;;5.25;2.03;;;;;;;11.54;73.17;95997.00;10298658;28;20057;-61
2022/04/01 19:26:20;;;;;;;5.03;1.65;;;;;;;11.40;73.68;95935.94;10299472;28;20077;-61
2022/04/01 19:31:19;;;;;;;5.65;1.65;;;;;;;11.16;74.30;95916.00;10298240;28;20134;-61
2022/04/01 19:36:18;;;;;;;3.63;1.85;;;;;;;11.32;74.52;95963.09;10298120;28;20141;-61
2022/04/01 19:41:17;;;;;;;3.40;1.50;;;;;;;10.53;73.55;95864.34;10298430;28;20073;-61
2022/04/01 19:46:16;;;;;;;3.97;2.10;;;;;;;11.30;71.84;96022.03;10298060;28;20046;-61
2022/04/01 19:51:15;;;;;;;4.97;2.08;;;;;;;11.30;72.09;96032.41;10298775;28;20125;-61
2022/04/01 19:56:14;;;;;;;9.00;3.03;;;;;;;10.96;72.34;95974.59;10298028;28;20084;-61
2022/04/01 20:01:13;;;;;;;3.80;1.42;;;;;;;11.09;70.44;95979.41;10297583;28;20036;-61
2022/04/01 20:06:13;;;;;;;5.63;1.90;;;;;;;11.33;71.38;95998.53;10294689;28;20061;-61
2022/04/01 20:11:12;;;;;;;7.07;2.60;;;;;;;11.33;72.19;96017.56;10293427;28;20076;-61
2022/04/01 20:16:11;;;;;;;6.18;3.10;;;;;;;11.20;71.20;95990.31;10293307;28;20049;-61
2022/04/01 20:21:12;;;;;;;7.38;3.25;;;;;;;11.06;72.47;96005.44;10292242;28;20116;-61
2022/04/01 20:26:20;;;;;;;3.55;1.90;;;;;;;10.93;73.19;95994.59;10292598;28;20073;-61
2022/04/01 20:31:19;;;;;;;8.93;3.42;;;;;;;10.97;73.89;95967.66;10292782;28;20061;-61
2022/04/01 20:36:18;;;;;;;9.35;3.40;;;;;;;10.96;74.48;95942.59;10293068;28;20014;-61
2022/04/01 20:41:17;;;;;;;;;;;;;;;10.93;74.79;95929.72;10292929;28;20137;-61
2022/04/01 20:46:16;;;;;;;6.65;3.05;;;;;;;10.95;74.35;95920.16;10292173;28;19957;-61
2022/04/01 20:51:15;;;;;;;8.75;2.60;;;;;;;10.92;73.54;95897.75;10292093;28;20072;-61
2022/04/01 20:56:13;;;;;;;4.30;2.10;;;;;;;10.96;73.95;95881.19;10291546;28;20025;-61
2022/04/01 21:01:14;;;;;;;4.10;2.20;;;;;;;10.99;72.06;95880.22;10292409;28;20105;-61
2022/04/01 21:06:13;;;;;;;3.17;1.80;;;;;;;10.61;71.24;95818.28;10291419;28;20061;-61
2022/04/01 21:11:12;;;;;;;;;;;;;;;11.09;70.68;95870.38;10291561;28;20068;-61
2022/04/01 21:16:12;;;;;;;6.57;2.00;;;;;;;10.45;70.07;95757.44;10291483;28;19932;-61
2022/04/01 21:21:11;;;;;;;8.90;3.10;;;;;;;11.20;69.64;95871.72;10289668;28;20069;-61
2022/04/01 21:31:28;;;;;;;5.93;2.03;;;;;;;11.30;68.82;95884.41;10291605;28;20073;-61
2022/04/01 21:36:27;;;;;;;;;;;;;;;11.33;67.48;95903.31;10291382;28;20610;-61
2022/04/01 21:41:26;;;;;;;82.10;36.75;;;;;;;11.38;66.40;95897.94;10290164;28;19910;-61
2022/04/01 21:46:25;;;;;;;12.38;5.25;;;;;;;11.29;66.66;95900.84;10290314;28;20131;-61
2022/04/01 21:51:24;;;;;;;23.20;12.65;;;;;;;11.33;67.57;95913.69;10290375;28;20026;-61
2022/04/01 21:56:23;;;;;;;24.15;12.05;;;;;;;11.38;66.90;95896.19;10289583;28;20064;-61
2022/04/01 22:01:34;;;;;;;13.10;6.35;;;;;;;11.37;68.11;95889.31;10288704;28;20042;-61
2022/04/01 22:06:34;;;;;;;8.00;4.30;;;;;;;11.13;69.00;95866.78;10290037;28;20072;-61
2022/04/01 22:11:33;;;;;;;9.35;4.97;;;;;;;10.49;70.69;95774.56;10288898;28;20081;-61
2022/04/01 22:16:33;;;;;;;10.98;5.00;;;;;;;11.17;71.23;95905.56;10290017;28;20060;-61
2022/04/01 22:21:33;;;;;;;7.95;2.90;;;;;;;10.98;72.20;95905.31;10290706;28;20069;-61
2022/04/01 22:26:32;;;;;;;9.73;3.00;;;;;;;10.79;71.74;95891.19;10292872;28;20071;-61
2022/04/01 22:31:31;;;;;;;;;;;;;;;10.98;72.10;95923.47;10292234;28;20066;-61
2022/04/01 22:36:31;;;;;;;8.57;2.50;;;;;;;10.87;73.07;95930.78;10292524;28;20012;-61
2022/04/01 22:41:29;;;;;;;6.63;2.22;;;;;;;10.71;73.87;95930.38;10292465;28;20094;-61
2022/04/01 22:46:29;;;;;;;5.13;1.90;;;;;;;10.03;74.06;95825.25;10292373;28;20042;-61
2022/04/01 22:56:47;;;;;;;5.70;1.97;;;;;;;10.54;73.93;95917.03;10308624;28;20448;-61
2022/04/01 23:01:46;;;;;;;5.60;2.30;;;;;;;10.52;73.57;95898.97;10299094;28;20500;-61
2022/04/01 23:06:45;;;;;;;5.05;2.30;;;;;;;10.69;73.75;95892.41;10297412;28;20026;-61
2022/04/01 23:11:44;;;;;;;7.35;2.22;;;;;;;10.78;73.09;95910.28;10295508;28;20093;-61
2022/04/01 23:16:43;;;;;;;5.40;2.30;;;;;;;10.85;72.02;95914.38;10295707;28;20097;-61
2022/04/01 23:21:45;;;;;;;5.75;2.28;;;;;;;10.90;71.20;95915.09;10296103;28;20109;-61
2022/04/01 23:26:45;;;;;;;3.15;2.30;;;;;;;11.00;71.33;95923.44;10295024;28;20065;-61
2022/04/01 23:31:44;;;;;;;5.28;2.40;;;;;;;11.07;70.69;95914.56;10295167;28;20065;-61
2022/04/01 23:36:43;;;;;;;4.07;2.42;;;;;;;11.11;69.92;95923.09;10296151;28;20018;-61
2022/04/01 23:41:42;;;;;;;4.15;2.22;;;;;;;11.11;69.97;95923.94;10294934;28;20133;-61